sensor_id;sensor_type;location;lat;lon;timestamp;temperature;humidity
40996;DHT22;26723;57.478;12.066;2022-08-24T00:00:51;15.60;99.90
40996;DHT22;26723;57.478;12.066;2022-08-24T00:04:00;15.60;99.90
40996;DHT22;26723;57.478;12.066;2022-08-24T00:07:09;15.50;99.90
40996;DHT22;26723;57.478;12.066;2022-08-24T00:10:33;15.40;99.90
40996;DHT22;26723;57.478;12.066;2022-08-24T00:13:43;15.50;99.90
40996;DHT22;26723;57.478;12.066;2022-08-24T00:16:51;15.40;99.90
40996;DHT22;26723;57.478;12.066;2022-08-24T00:20:00;15.40;99.90
40996;DHT22;26723;57.478;12.066;2022-08-24T00:23:09;15.40;99.90
40996;DHT22;26723;57.478;12.066;2022-08-24T00:26:18;15.50;99.90
40996;DHT22;26723;57.478;12.066;2022-08-24T00:29:37;15.40;99.90
40996;DHT22;26723;57.478;12.066;2022-08-24T00:32:47;15.50;99.90
40996;DHT22;26723;57.478;12.066;2022-08-24T00:35:56;15.40;99.90
40996;DHT22;26723;57.478;12.066;2022-08-24T00:39:05;15.50;99.90
40996;DHT22;26723;57.478;12.066;2022-08-24T00:42:13;15.40;99.90
40996;DHT22;26723;57.478;12.066;2022-08-24T00:45:23;15.40;99.90
40996;DHT22;26723;57.478;12.066;2022-08-24T00:48:33;15.40;99.90
40996;DHT22;26723;57.478;12.066;2022-08-24T00:51:48;15.20;99.90
40996;DHT22;26723;57.478;12.066;2022-08-24T00:55:05;15.20;99.90
40996;DHT22;26723;57.478;12.066;2022-08-24T00:58:18;15.00;99.90
40996;DHT22;26723;57.478;12.066;2022-08-24T01:01:31;15.10;99.90
40996;DHT22;26723;57.478;12.066;2022-08-24T01:04:46;15.20;99.90
40996;DHT22;26723;57.478;12.066;2022-08-24T01:07:56;15.10;99.90
40996;DHT22;26723;57.478;12.066;2022-08-24T01:11:07;15.10;99.90
40996;DHT22;26723;57.478;12.066;2022-08-24T01:14:20;15.20;99.90
40996;DHT22;26723;57.478;12.066;2022-08-24T01:17:30;15.20;99.90
40996;DHT22;26723;57.478;12.066;2022-08-24T01:21:00;15.20;99.90
40996;DHT22;26723;57.478;12.066;2022-08-24T01:24:13;15.20;99.90
40996;DHT22;26723;57.478;12.066;2022-08-24T01:27:21;15.10;99.90
40996;DHT22;26723;57.478;12.066;2022-08-24T01:30:34;15.10;99.90
40996;DHT22;26723;57.478;12.066;2022-08-24T01:33:48;15.20;99.90
40996;DHT22;26723;57.478;12.066;2022-08-24T01:36:56;15.20;99.90
40996;DHT22;26723;57.478;12.066;2022-08-24T01:40:08;15.20;99.90
40996;DHT22;26723;57.478;12.066;2022-08-24T01:43:17;15.20;99.90
40996;DHT22;26723;57.478;12.066;2022-08-24T01:46:26;15.20;99.90
40996;DHT22;26723;57.478;12.066;2022-08-24T01:49:36;15.20;99.90
40996;DHT22;26723;57.478;12.066;2022-08-24T01:52:45;15.10;99.90
40996;DHT22;26723;57.478;12.066;2022-08-24T01:56:13;15.10;99.90
40996;DHT22;26723;57.478;12.066;2022-08-24T01:59:21;15.20;99.90
40996;DHT22;26723;57.478;12.066;2022-08-24T02:02:31;15.10;99.90
40996;DHT22;26723;57.478;12.066;2022-08-24T02:05:40;15.00;99.90
40996;DHT22;26723;57.478;12.066;2022-08-24T02:08:52;14.90;99.90
40996;DHT22;26723;57.478;12.066;2022-08-24T02:12:03;14.90;99.90
40996;DHT22;26723;57.478;12.066;2022-08-24T02:15:13;14.80;99.90
40996;DHT22;26723;57.478;12.066;2022-08-24T02:18:21;14.90;99.90
40996;DHT22;26723;57.478;12.066;2022-08-24T02:21:30;15.00;99.90
40996;DHT22;26723;57.478;12.066;2022-08-24T02:24:38;15.10;99.90
40996;DHT22;26723;57.478;12.066;2022-08-24T02:27:49;15.10;99.90
40996;DHT22;26723;57.478;12.066;2022-08-24T02:30:58;15.10;99.90
40996;DHT22;26723;57.478;12.066;2022-08-24T02:34:09;15.00;99.90
40996;DHT22;26723;57.478;12.066;2022-08-24T02:37:19;15.00;99.90
40996;DHT22;26723;57.478;12.066;2022-08-24T02:40:28;15.10;99.90
40996;DHT22;26723;57.478;12.066;2022-08-24T02:43:38;15.10;99.90
40996;DHT22;26723;57.478;12.066;2022-08-24T02:46:48;15.10;99.90
40996;DHT22;26723;57.478;12.066;2022-08-24T02:50:00;15.10;99.90
40996;DHT22;26723;57.478;12.066;2022-08-24T02:53:09;15.10;99.90
40996;DHT22;26723;57.478;12.066;2022-08-24T02:56:20;15.10;99.90
40996;DHT22;26723;57.478;12.066;2022-08-24T02:59:29;15.10;99.90
40996;DHT22;26723;57.478;12.066;2022-08-24T03:02:38;15.00;99.90
40996;DHT22;26723;57.478;12.066;2022-08-24T03:05:48;15.00;99.90
40996;DHT22;26723;57.478;12.066;2022-08-24T03:08:58;15.00;99.90
40996;DHT22;26723;57.478;12.066;2022-08-24T03:12:07;15.10;99.90
40996;DHT22;26723;57.478;12.066;2022-08-24T03:15:19;15.10;99.90
40996;DHT22;26723;57.478;12.066;2022-08-24T03:18:29;15.10;99.90
40996;DHT22;26723;57.478;12.066;2022-08-24T03:21:38;15.00;99.90
40996;DHT22;26723;57.478;12.066;2022-08-24T03:24:47;15.00;99.90
40996;DHT22;26723;57.478;12.066;2022-08-24T03:27:56;15.00;99.90
40996;DHT22;26723;57.478;12.066;2022-08-24T03:31:06;15.00;99.90
40996;DHT22;26723;57.478;12.066;2022-08-24T03:34:15;15.00;99.90
40996;DHT22;26723;57.478;12.066;2022-08-24T03:37:26;15.00;99.90
40996;DHT22;26723;57.478;12.066;2022-08-24T03:40:35;14.90;99.90
40996;DHT22;26723;57.478;12.066;2022-08-24T03:43:44;14.80;99.90
40996;DHT22;26723;57.478;12.066;2022-08-24T03:46:59;14.80;99.90
40996;DHT22;26723;57.478;12.066;2022-08-24T03:50:10;14.80;99.90
40996;DHT22;26723;57.478;12.066;2022-08-24T03:53:21;14.90;99.90
40996;DHT22;26723;57.478;12.066;2022-08-24T03:56:30;14.90;99.90
40996;DHT22;26723;57.478;12.066;2022-08-24T03:59:40;14.90;99.90
40996;DHT22;26723;57.478;12.066;2022-08-24T04:02:54;14.80;99.90
40996;DHT22;26723;57.478;12.066;2022-08-24T04:06:06;14.80;99.90
40996;DHT22;26723;57.478;12.066;2022-08-24T04:09:18;14.80;99.90
40996;DHT22;26723;57.478;12.066;2022-08-24T04:12:27;14.70;99.90
40996;DHT22;26723;57.478;12.066;2022-08-24T04:15:38;14.80;99.90
40996;DHT22;26723;57.478;12.066;2022-08-24T04:18:49;14.90;99.90
40996;DHT22;26723;57.478;12.066;2022-08-24T04:21:58;14.90;99.90
40996;DHT22;26723;57.478;12.066;2022-08-24T04:25:09;14.80;99.90
40996;DHT22;26723;57.478;12.066;2022-08-24T04:28:19;14.70;99.90
40996;DHT22;26723;57.478;12.066;2022-08-24T04:31:31;14.70;99.90
40996;DHT22;26723;57.478;12.066;2022-08-24T04:34:41;14.70;99.90
40996;DHT22;26723;57.478;12.066;2022-08-24T04:37:50;14.60;99.90
40996;DHT22;26723;57.478;12.066;2022-08-24T04:40:59;14.60;99.90
40996;DHT22;26723;57.478;12.066;2022-08-24T04:44:08;14.60;99.90
40996;DHT22;26723;57.478;12.066;2022-08-24T04:47:17;14.70;99.90
40996;DHT22;26723;57.478;12.066;2022-08-24T04:50:27;14.70;99.90
40996;DHT22;26723;57.478;12.066;2022-08-24T04:53:36;14.60;99.90
40996;DHT22;26723;57.478;12.066;2022-08-24T04:56:45;14.70;99.90
40996;DHT22;26723;57.478;12.066;2022-08-24T04:59:54;14.90;99.90
40996;DHT22;26723;57.478;12.066;2022-08-24T05:03:04;14.90;99.90
40996;DHT22;26723;57.478;12.066;2022-08-24T05:06:15;14.90;99.90
40996;DHT22;26723;57.478;12.066;2022-08-24T05:09:24;15.00;99.90
40996;DHT22;26723;57.478;12.066;2022-08-24T05:12:32;15.10;99.90
40996;DHT22;26723;57.478;12.066;2022-08-24T05:15:45;15.20;99.90
40996;DHT22;26723;57.478;12.066;2022-08-24T05:18:55;15.20;99.90
40996;DHT22;26723;57.478;12.066;2022-08-24T05:22:06;15.30;99.90
40996;DHT22;26723;57.478;12.066;2022-08-24T05:25:17;15.40;99.90
40996;DHT22;26723;57.478;12.066;2022-08-24T05:28:26;15.50;99.90
40996;DHT22;26723;57.478;12.066;2022-08-24T05:31:35;15.60;99.90
40996;DHT22;26723;57.478;12.066;2022-08-24T05:34:47;15.70;99.90
40996;DHT22;26723;57.478;12.066;2022-08-24T05:37:57;15.80;99.90
40996;DHT22;26723;57.478;12.066;2022-08-24T05:41:12;15.90;99.90
40996;DHT22;26723;57.478;12.066;2022-08-24T05:44:22;16.00;99.90
40996;DHT22;26723;57.478;12.066;2022-08-24T05:47:38;16.20;99.90
40996;DHT22;26723;57.478;12.066;2022-08-24T05:51:02;16.30;99.90
40996;DHT22;26723;57.478;12.066;2022-08-24T05:54:15;16.40;99.90
40996;DHT22;26723;57.478;12.066;2022-08-24T05:57:34;16.50;99.90
40996;DHT22;26723;57.478;12.066;2022-08-24T06:00:50;16.70;99.90
40996;DHT22;26723;57.478;12.066;2022-08-24T06:03:59;17.00;99.90
40996;DHT22;26723;57.478;12.066;2022-08-24T06:07:08;17.10;99.90
40996;DHT22;26723;57.478;12.066;2022-08-24T06:10:22;17.50;99.90
40996;DHT22;26723;57.478;12.066;2022-08-24T06:13:47;17.70;99.90
40996;DHT22;26723;57.478;12.066;2022-08-24T06:17:05;18.20;99.90
40996;DHT22;26723;57.478;12.066;2022-08-24T06:20:13;18.50;99.90
40996;DHT22;26723;57.478;12.066;2022-08-24T06:23:22;19.10;99.90
40996;DHT22;26723;57.478;12.066;2022-08-24T06:26:40;21.50;99.90
40996;DHT22;26723;57.478;12.066;2022-08-24T06:30:08;24.20;99.90
40996;DHT22;26723;57.478;12.066;2022-08-24T06:33:35;26.10;99.90
40996;DHT22;26723;57.478;12.066;2022-08-24T06:36:44;27.10;99.90
40996;DHT22;26723;57.478;12.066;2022-08-24T06:39:54;27.70;99.90
40996;DHT22;26723;57.478;12.066;2022-08-24T06:43:05;28.30;99.90
40996;DHT22;26723;57.478;12.066;2022-08-24T06:46:27;28.80;99.90
40996;DHT22;26723;57.478;12.066;2022-08-24T06:49:39;29.50;99.90
40996;DHT22;26723;57.478;12.066;2022-08-24T06:52:48;29.90;99.90
40996;DHT22;26723;57.478;12.066;2022-08-24T06:55:57;30.50;99.90
40996;DHT22;26723;57.478;12.066;2022-08-24T06:59:13;30.60;99.90
40996;DHT22;26723;57.478;12.066;2022-08-24T07:02:21;30.60;99.90
40996;DHT22;26723;57.478;12.066;2022-08-24T07:05:32;30.80;99.90
40996;DHT22;26723;57.478;12.066;2022-08-24T07:09:11;31.70;99.90
40996;DHT22;26723;57.478;12.066;2022-08-24T07:12:20;32.10;99.90
40996;DHT22;26723;57.478;12.066;2022-08-24T07:15:32;32.70;99.90
40996;DHT22;26723;57.478;12.066;2022-08-24T07:18:51;32.60;99.90
40996;DHT22;26723;57.478;12.066;2022-08-24T07:22:00;32.70;99.90
40996;DHT22;26723;57.478;12.066;2022-08-24T07:25:10;32.80;99.90
40996;DHT22;26723;57.478;12.066;2022-08-24T07:28:19;32.50;99.90
40996;DHT22;26723;57.478;12.066;2022-08-24T07:31:42;32.70;99.90
40996;DHT22;26723;57.478;12.066;2022-08-24T07:35:13;32.70;99.90
40996;DHT22;26723;57.478;12.066;2022-08-24T07:38:22;31.00;99.90
40996;DHT22;26723;57.478;12.066;2022-08-24T07:41:30;29.80;99.90
40996;DHT22;26723;57.478;12.066;2022-08-24T07:44:59;28.50;99.90
40996;DHT22;26723;57.478;12.066;2022-08-24T07:48:09;28.90;99.90
40996;DHT22;26723;57.478;12.066;2022-08-24T07:51:24;29.70;99.90
40996;DHT22;26723;57.478;12.066;2022-08-24T07:54:33;29.60;99.90
40996;DHT22;26723;57.478;12.066;2022-08-24T07:57:42;29.50;99.90
40996;DHT22;26723;57.478;12.066;2022-08-24T08:00:52;29.70;99.90
40996;DHT22;26723;57.478;12.066;2022-08-24T08:04:02;29.30;99.90
40996;DHT22;26723;57.478;12.066;2022-08-24T08:07:10;29.80;99.90
40996;DHT22;26723;57.478;12.066;2022-08-24T08:10:20;29.70;99.90
40996;DHT22;26723;57.478;12.066;2022-08-24T08:13:31;30.40;99.90
40996;DHT22;26723;57.478;12.066;2022-08-24T08:16:40;30.30;99.90
40996;DHT22;26723;57.478;12.066;2022-08-24T08:19:49;30.40;99.90
40996;DHT22;26723;57.478;12.066;2022-08-24T08:22:58;30.10;99.90
40996;DHT22;26723;57.478;12.066;2022-08-24T08:26:33;30.00;99.90
40996;DHT22;26723;57.478;12.066;2022-08-24T08:29:49;29.50;99.90
40996;DHT22;26723;57.478;12.066;2022-08-24T08:32:58;29.80;99.90
40996;DHT22;26723;57.478;12.066;2022-08-24T08:36:10;29.60;99.90
40996;DHT22;26723;57.478;12.066;2022-08-24T08:39:27;30.10;99.90
40996;DHT22;26723;57.478;12.066;2022-08-24T08:42:52;29.40;99.90
40996;DHT22;26723;57.478;12.066;2022-08-24T08:46:24;30.30;99.90
40996;DHT22;26723;57.478;12.066;2022-08-24T08:50:04;30.30;99.90
40996;DHT22;26723;57.478;12.066;2022-08-24T08:53:35;29.40;99.90
40996;DHT22;26723;57.478;12.066;2022-08-24T08:57:05;30.20;99.90
40996;DHT22;26723;57.478;12.066;2022-08-24T09:00:24;29.80;99.90
40996;DHT22;26723;57.478;12.066;2022-08-24T09:07:34;30.10;99.90
40996;DHT22;26723;57.478;12.066;2022-08-24T09:10:55;29.80;99.90
40996;DHT22;26723;57.478;12.066;2022-08-24T09:14:22;30.30;99.90
40996;DHT22;26723;57.478;12.066;2022-08-24T09:17:55;29.50;99.90
40996;DHT22;26723;57.478;12.066;2022-08-24T09:25:04;30.00;99.90
40996;DHT22;26723;57.478;12.066;2022-08-24T09:28:41;29.90;99.90
40996;DHT22;26723;57.478;12.066;2022-08-24T09:32:16;30.30;99.90
40996;DHT22;26723;57.478;12.066;2022-08-24T09:35:34;30.60;99.90
40996;DHT22;26723;57.478;12.066;2022-08-24T09:39:05;29.60;99.70
40996;DHT22;26723;57.478;12.066;2022-08-24T09:42:34;29.50;99.90
40996;DHT22;26723;57.478;12.066;2022-08-24T09:49:52;29.80;99.90
40996;DHT22;26723;57.478;12.066;2022-08-24T09:57:02;29.50;99.90
40996;DHT22;26723;57.478;12.066;2022-08-24T10:00:24;30.70;99.90
40996;DHT22;26723;57.478;12.066;2022-08-24T10:03:48;30.20;99.90
40996;DHT22;26723;57.478;12.066;2022-08-24T10:07:10;30.20;99.90
40996;DHT22;26723;57.478;12.066;2022-08-24T10:10:28;30.40;99.90
40996;DHT22;26723;57.478;12.066;2022-08-24T10:13:45;30.50;99.90
40996;DHT22;26723;57.478;12.066;2022-08-24T10:17:01;29.70;99.90
40996;DHT22;26723;57.478;12.066;2022-08-24T10:20:19;29.50;99.90
40996;DHT22;26723;57.478;12.066;2022-08-24T10:23:44;29.80;99.90
40996;DHT22;26723;57.478;12.066;2022-08-24T10:27:20;30.20;99.90
40996;DHT22;26723;57.478;12.066;2022-08-24T10:30:50;29.60;99.90
40996;DHT22;26723;57.478;12.066;2022-08-24T10:34:15;29.70;99.90
40996;DHT22;26723;57.478;12.066;2022-08-24T10:45:41;29.40;99.90
40996;DHT22;26723;57.478;12.066;2022-08-24T10:53:04;29.30;99.90
40996;DHT22;26723;57.478;12.066;2022-08-24T10:56:21;28.70;99.90
40996;DHT22;26723;57.478;12.066;2022-08-24T10:59:42;28.50;99.90
40996;DHT22;26723;57.478;12.066;2022-08-24T11:03:10;28.80;99.90
40996;DHT22;26723;57.478;12.066;2022-08-24T11:06:20;28.80;99.90
40996;DHT22;26723;57.478;12.066;2022-08-24T11:09:42;29.00;99.90
40996;DHT22;26723;57.478;12.066;2022-08-24T11:12:51;29.00;99.90
40996;DHT22;26723;57.478;12.066;2022-08-24T11:16:02;29.00;99.90
40996;DHT22;26723;57.478;12.066;2022-08-24T11:19:13;28.70;99.90
40996;DHT22;26723;57.478;12.066;2022-08-24T11:22:31;28.20;99.90
40996;DHT22;26723;57.478;12.066;2022-08-24T11:25:50;28.50;99.90
40996;DHT22;26723;57.478;12.066;2022-08-24T11:29:03;28.60;99.90
40996;DHT22;26723;57.478;12.066;2022-08-24T11:32:25;28.40;99.90
40996;DHT22;26723;57.478;12.066;2022-08-24T11:35:36;28.60;99.90
40996;DHT22;26723;57.478;12.066;2022-08-24T11:38:45;29.00;99.90
40996;DHT22;26723;57.478;12.066;2022-08-24T11:41:58;28.50;99.90
40996;DHT22;26723;57.478;12.066;2022-08-24T11:45:11;27.80;99.90
40996;DHT22;26723;57.478;12.066;2022-08-24T11:48:33;28.30;99.90
40996;DHT22;26723;57.478;12.066;2022-08-24T11:51:58;28.30;99.90
40996;DHT22;26723;57.478;12.066;2022-08-24T11:55:14;27.10;99.90
40996;DHT22;26723;57.478;12.066;2022-08-24T11:58:40;27.10;99.90
40996;DHT22;26723;57.478;12.066;2022-08-24T12:01:52;26.90;99.90
40996;DHT22;26723;57.478;12.066;2022-08-24T12:05:07;26.80;99.90
40996;DHT22;26723;57.478;12.066;2022-08-24T12:08:28;26.40;99.90
40996;DHT22;26723;57.478;12.066;2022-08-24T12:11:47;26.30;99.90
40996;DHT22;26723;57.478;12.066;2022-08-24T12:15:03;26.60;99.90
40996;DHT22;26723;57.478;12.066;2022-08-24T12:18:23;26.30;99.90
40996;DHT22;26723;57.478;12.066;2022-08-24T12:21:38;26.50;99.90
40996;DHT22;26723;57.478;12.066;2022-08-24T12:24:50;26.30;99.90
40996;DHT22;26723;57.478;12.066;2022-08-24T12:28:03;26.30;99.90
40996;DHT22;26723;57.478;12.066;2022-08-24T12:31:16;26.60;99.90
40996;DHT22;26723;57.478;12.066;2022-08-24T12:34:30;26.40;99.90
40996;DHT22;26723;57.478;12.066;2022-08-24T12:37:45;26.10;99.90
40996;DHT22;26723;57.478;12.066;2022-08-24T12:40:57;26.20;99.90
40996;DHT22;26723;57.478;12.066;2022-08-24T12:44:24;26.30;99.90
40996;DHT22;26723;57.478;12.066;2022-08-24T12:47:37;26.10;99.90
40996;DHT22;26723;57.478;12.066;2022-08-24T12:51:02;26.20;99.90
40996;DHT22;26723;57.478;12.066;2022-08-24T12:54:33;26.10;99.90
40996;DHT22;26723;57.478;12.066;2022-08-24T12:57:52;26.10;99.90
40996;DHT22;26723;57.478;12.066;2022-08-24T13:01:06;26.20;99.90
40996;DHT22;26723;57.478;12.066;2022-08-24T13:04:17;26.10;99.90
40996;DHT22;26723;57.478;12.066;2022-08-24T13:07:42;26.20;99.90
40996;DHT22;26723;57.478;12.066;2022-08-24T13:10:58;26.30;99.90
40996;DHT22;26723;57.478;12.066;2022-08-24T13:14:18;26.10;99.90
40996;DHT22;26723;57.478;12.066;2022-08-24T13:17:39;26.10;99.90
40996;DHT22;26723;57.478;12.066;2022-08-24T13:20:53;26.30;99.90
40996;DHT22;26723;57.478;12.066;2022-08-24T13:28:05;26.60;99.90
40996;DHT22;26723;57.478;12.066;2022-08-24T13:31:29;26.30;99.90
40996;DHT22;26723;57.478;12.066;2022-08-24T13:34:41;26.30;99.90
40996;DHT22;26723;57.478;12.066;2022-08-24T13:41:44;26.00;99.90
40996;DHT22;26723;57.478;12.066;2022-08-24T13:45:15;26.00;99.90
40996;DHT22;26723;57.478;12.066;2022-08-24T13:48:38;25.80;99.90
40996;DHT22;26723;57.478;12.066;2022-08-24T13:51:53;25.70;99.90
40996;DHT22;26723;57.478;12.066;2022-08-24T13:55:13;25.50;99.90
40996;DHT22;26723;57.478;12.066;2022-08-24T13:58:34;25.70;99.90
40996;DHT22;26723;57.478;12.066;2022-08-24T14:02:03;25.70;99.90
40996;DHT22;26723;57.478;12.066;2022-08-24T14:05:24;25.70;99.90
40996;DHT22;26723;57.478;12.066;2022-08-24T14:08:43;25.70;99.90
40996;DHT22;26723;57.478;12.066;2022-08-24T14:12:17;25.50;99.90
40996;DHT22;26723;57.478;12.066;2022-08-24T14:15:45;25.50;99.90
40996;DHT22;26723;57.478;12.066;2022-08-24T14:19:05;25.40;99.90
40996;DHT22;26723;57.478;12.066;2022-08-24T14:22:26;25.30;99.90
40996;DHT22;26723;57.478;12.066;2022-08-24T14:25:37;25.40;99.90
40996;DHT22;26723;57.478;12.066;2022-08-24T14:28:46;25.20;99.90
40996;DHT22;26723;57.478;12.066;2022-08-24T14:35:42;25.20;99.90
40996;DHT22;26723;57.478;12.066;2022-08-24T14:39:05;25.10;99.90
40996;DHT22;26723;57.478;12.066;2022-08-24T14:42:17;25.10;99.90
40996;DHT22;26723;57.478;12.066;2022-08-24T14:45:37;25.20;99.90
40996;DHT22;26723;57.478;12.066;2022-08-24T14:48:54;25.10;99.90
40996;DHT22;26723;57.478;12.066;2022-08-24T14:52:20;25.10;99.90
40996;DHT22;26723;57.478;12.066;2022-08-24T14:55:36;24.90;99.90
40996;DHT22;26723;57.478;12.066;2022-08-24T14:58:50;24.90;99.90
40996;DHT22;26723;57.478;12.066;2022-08-24T15:02:31;24.80;99.90
40996;DHT22;26723;57.478;12.066;2022-08-24T15:05:51;24.80;99.90
40996;DHT22;26723;57.478;12.066;2022-08-24T15:09:31;24.70;99.90
40996;DHT22;26723;57.478;12.066;2022-08-24T15:12:43;24.70;99.90
40996;DHT22;26723;57.478;12.066;2022-08-24T15:15:59;24.70;99.90
40996;DHT22;26723;57.478;12.066;2022-08-24T15:19:13;24.60;99.90
40996;DHT22;26723;57.478;12.066;2022-08-24T15:22:39;24.50;99.90
40996;DHT22;26723;57.478;12.066;2022-08-24T15:25:54;24.40;99.90
40996;DHT22;26723;57.478;12.066;2022-08-24T15:29:12;24.30;99.90
40996;DHT22;26723;57.478;12.066;2022-08-24T15:32:22;24.20;99.90
40996;DHT22;26723;57.478;12.066;2022-08-24T15:35:37;24.30;99.90
40996;DHT22;26723;57.478;12.066;2022-08-24T15:38:46;24.20;99.90
40996;DHT22;26723;57.478;12.066;2022-08-24T15:41:57;24.20;99.90
40996;DHT22;26723;57.478;12.066;2022-08-24T15:45:06;24.20;99.90
40996;DHT22;26723;57.478;12.066;2022-08-24T15:48:17;24.20;99.90
40996;DHT22;26723;57.478;12.066;2022-08-24T15:51:43;24.00;99.90
40996;DHT22;26723;57.478;12.066;2022-08-24T15:54:57;24.10;99.90
40996;DHT22;26723;57.478;12.066;2022-08-24T15:58:22;24.20;99.90
40996;DHT22;26723;57.478;12.066;2022-08-24T16:01:40;24.10;99.90
40996;DHT22;26723;57.478;12.066;2022-08-24T16:05:15;24.10;99.90
40996;DHT22;26723;57.478;12.066;2022-08-24T16:08:24;24.10;99.90
40996;DHT22;26723;57.478;12.066;2022-08-24T16:11:39;24.50;99.90
40996;DHT22;26723;57.478;12.066;2022-08-24T16:14:52;24.70;99.90
40996;DHT22;26723;57.478;12.066;2022-08-24T16:18:09;24.80;99.90
40996;DHT22;26723;57.478;12.066;2022-08-24T16:21:22;24.90;99.90
40996;DHT22;26723;57.478;12.066;2022-08-24T16:24:41;24.90;99.90
40996;DHT22;26723;57.478;12.066;2022-08-24T16:28:05;24.90;99.90
40996;DHT22;26723;57.478;12.066;2022-08-24T16:31:49;24.80;99.90
40996;DHT22;26723;57.478;12.066;2022-08-24T16:35:16;24.90;99.90
40996;DHT22;26723;57.478;12.066;2022-08-24T16:38:25;24.90;99.90
40996;DHT22;26723;57.478;12.066;2022-08-24T16:41:34;24.80;99.90
40996;DHT22;26723;57.478;12.066;2022-08-24T16:44:44;24.80;99.90
40996;DHT22;26723;57.478;12.066;2022-08-24T16:47:54;24.80;99.90
40996;DHT22;26723;57.478;12.066;2022-08-24T16:51:03;24.90;99.90
40996;DHT22;26723;57.478;12.066;2022-08-24T16:54:11;24.70;99.90
40996;DHT22;26723;57.478;12.066;2022-08-24T16:57:22;24.70;99.90
40996;DHT22;26723;57.478;12.066;2022-08-24T17:00:31;24.70;99.90
40996;DHT22;26723;57.478;12.066;2022-08-24T17:03:41;24.60;99.90
40996;DHT22;26723;57.478;12.066;2022-08-24T17:06:49;24.30;99.90
40996;DHT22;26723;57.478;12.066;2022-08-24T17:10:00;24.50;99.90
40996;DHT22;26723;57.478;12.066;2022-08-24T17:13:09;24.40;99.90
40996;DHT22;26723;57.478;12.066;2022-08-24T17:16:34;24.50;99.90
40996;DHT22;26723;57.478;12.066;2022-08-24T17:19:43;24.50;99.90
40996;DHT22;26723;57.478;12.066;2022-08-24T17:22:52;24.50;99.90
40996;DHT22;26723;57.478;12.066;2022-08-24T17:26:02;24.50;99.90
40996;DHT22;26723;57.478;12.066;2022-08-24T17:29:12;24.60;99.90
40996;DHT22;26723;57.478;12.066;2022-08-24T17:32:25;24.50;99.90
40996;DHT22;26723;57.478;12.066;2022-08-24T17:35:36;24.40;99.90
40996;DHT22;26723;57.478;12.066;2022-08-24T17:38:47;24.30;99.90
40996;DHT22;26723;57.478;12.066;2022-08-24T17:42:01;24.00;99.90
40996;DHT22;26723;57.478;12.066;2022-08-24T17:45:31;23.90;99.90
40996;DHT22;26723;57.478;12.066;2022-08-24T17:48:41;23.90;99.90
40996;DHT22;26723;57.478;12.066;2022-08-24T17:51:52;23.70;99.90
40996;DHT22;26723;57.478;12.066;2022-08-24T17:55:03;23.50;99.90
40996;DHT22;26723;57.478;12.066;2022-08-24T17:58:13;23.30;99.90
40996;DHT22;26723;57.478;12.066;2022-08-24T18:01:22;23.20;99.90
40996;DHT22;26723;57.478;12.066;2022-08-24T18:04:32;23.00;99.90
40996;DHT22;26723;57.478;12.066;2022-08-24T18:07:48;23.00;99.90
40996;DHT22;26723;57.478;12.066;2022-08-24T18:11:00;23.00;99.90
40996;DHT22;26723;57.478;12.066;2022-08-24T18:14:09;22.80;99.90
40996;DHT22;26723;57.478;12.066;2022-08-24T18:17:20;22.60;99.90
40996;DHT22;26723;57.478;12.066;2022-08-24T18:20:33;22.50;99.90
40996;DHT22;26723;57.478;12.066;2022-08-24T18:23:43;22.50;99.90
40996;DHT22;26723;57.478;12.066;2022-08-24T18:26:52;22.40;99.90
40996;DHT22;26723;57.478;12.066;2022-08-24T18:30:02;22.40;99.90
40996;DHT22;26723;57.478;12.066;2022-08-24T18:33:11;22.40;99.90
40996;DHT22;26723;57.478;12.066;2022-08-24T18:36:20;22.30;99.90
40996;DHT22;26723;57.478;12.066;2022-08-24T18:39:30;22.20;99.90
40996;DHT22;26723;57.478;12.066;2022-08-24T18:42:39;22.00;99.90
40996;DHT22;26723;57.478;12.066;2022-08-24T18:45:48;22.00;99.90
40996;DHT22;26723;57.478;12.066;2022-08-24T18:48:56;21.80;99.90
40996;DHT22;26723;57.478;12.066;2022-08-24T18:52:07;21.70;99.90
40996;DHT22;26723;57.478;12.066;2022-08-24T18:55:24;21.60;99.90
40996;DHT22;26723;57.478;12.066;2022-08-24T18:58:32;21.60;99.90
40996;DHT22;26723;57.478;12.066;2022-08-24T19:01:45;21.60;99.90
40996;DHT22;26723;57.478;12.066;2022-08-24T19:05:14;21.50;99.90
40996;DHT22;26723;57.478;12.066;2022-08-24T19:08:23;21.20;99.90
40996;DHT22;26723;57.478;12.066;2022-08-24T19:11:33;21.10;99.90
40996;DHT22;26723;57.478;12.066;2022-08-24T19:14:41;21.10;99.90
40996;DHT22;26723;57.478;12.066;2022-08-24T19:17:52;21.10;99.90
40996;DHT22;26723;57.478;12.066;2022-08-24T19:21:02;21.10;99.90
40996;DHT22;26723;57.478;12.066;2022-08-24T19:24:11;21.10;99.90
40996;DHT22;26723;57.478;12.066;2022-08-24T19:27:21;20.90;99.90
40996;DHT22;26723;57.478;12.066;2022-08-24T19:30:30;20.90;99.90
40996;DHT22;26723;57.478;12.066;2022-08-24T19:33:43;20.80;99.90
40996;DHT22;26723;57.478;12.066;2022-08-24T19:36:56;20.70;99.90
40996;DHT22;26723;57.478;12.066;2022-08-24T19:40:07;20.60;99.90
40996;DHT22;26723;57.478;12.066;2022-08-24T19:43:18;20.40;99.90
40996;DHT22;26723;57.478;12.066;2022-08-24T19:46:29;20.30;99.90
40996;DHT22;26723;57.478;12.066;2022-08-24T19:49:38;20.10;99.90
40996;DHT22;26723;57.478;12.066;2022-08-24T19:52:47;20.00;99.90
40996;DHT22;26723;57.478;12.066;2022-08-24T19:55:55;19.90;99.90
40996;DHT22;26723;57.478;12.066;2022-08-24T19:59:07;19.70;99.90
40996;DHT22;26723;57.478;12.066;2022-08-24T20:02:25;19.60;99.90
40996;DHT22;26723;57.478;12.066;2022-08-24T20:05:33;19.50;99.90
40996;DHT22;26723;57.478;12.066;2022-08-24T20:08:42;19.50;99.90
40996;DHT22;26723;57.478;12.066;2022-08-24T20:11:54;19.50;99.90
40996;DHT22;26723;57.478;12.066;2022-08-24T20:15:05;19.40;99.90
40996;DHT22;26723;57.478;12.066;2022-08-24T20:18:14;19.30;99.90
40996;DHT22;26723;57.478;12.066;2022-08-24T20:21:23;19.20;99.90
40996;DHT22;26723;57.478;12.066;2022-08-24T20:24:36;19.10;99.90
40996;DHT22;26723;57.478;12.066;2022-08-24T20:27:44;19.10;99.90
40996;DHT22;26723;57.478;12.066;2022-08-24T20:30:55;19.20;99.90
40996;DHT22;26723;57.478;12.066;2022-08-24T20:34:03;19.00;99.90
40996;DHT22;26723;57.478;12.066;2022-08-24T20:37:16;19.10;99.90
40996;DHT22;26723;57.478;12.066;2022-08-24T20:40:25;19.00;99.90
40996;DHT22;26723;57.478;12.066;2022-08-24T20:43:33;19.00;99.90
40996;DHT22;26723;57.478;12.066;2022-08-24T20:46:43;18.90;99.90